createdAt,value
2023-04-13T00:00:44.291Z,13.57
2023-04-13T00:03:17.741Z,14.70
2023-04-13T00:05:48.940Z,12.77
2023-04-13T00:08:17.245Z,13.60
2023-04-13T00:10:46.128Z,13.77
2023-04-13T00:13:12.977Z,13.55
2023-04-13T00:15:42.210Z,13.57
2023-04-13T00:20:35.949Z,13.32
2023-04-13T00:23:03.139Z,14.13
2023-04-13T00:25:30.658Z,14.57
2023-04-13T00:27:57.484Z,13.55
2023-04-13T00:30:24.188Z,14.77
2023-04-13T00:32:52.095Z,16.92
2023-04-13T00:35:25.065Z,15.80
2023-04-13T00:37:52.641Z,16.77
2023-04-13T00:40:19.429Z,16.10
2023-04-13T00:42:47.569Z,21.02
2023-04-13T00:45:14.951Z,27.17
2023-04-13T00:47:43.419Z,19.10
2023-04-13T00:50:10.450Z,18.45
2023-04-13T00:52:40.466Z,19.23
2023-04-13T00:55:07.841Z,19.05
2023-04-13T00:57:35.313Z,18.63
2023-04-13T01:00:07.104Z,17.92
2023-04-13T01:02:34.422Z,18.83
2023-04-13T01:05:02.364Z,17.70
2023-04-13T01:07:42.548Z,19.50
2023-04-13T01:10:21.400Z,19.33
2023-04-13T01:13:06.532Z,18.08
2023-04-13T01:15:37.330Z,20.30
2023-04-13T01:18:08.517Z,19.55
2023-04-13T01:20:41.234Z,19.42
2023-04-13T01:23:10.627Z,17.83
2023-04-13T01:28:10.091Z,17.85
2023-04-13T01:30:37.892Z,19.08
2023-04-13T01:33:05.912Z,18.35
2023-04-13T01:35:33.227Z,15.73
2023-04-13T01:38:00.002Z,22.70
2023-04-13T01:40:28.604Z,16.98
2023-04-13T01:42:56.132Z,16.98
2023-04-13T01:45:25.738Z,17.05
2023-04-13T01:48:12.401Z,15.00
2023-04-13T01:50:45.853Z,13.90
2023-04-13T01:53:16.268Z,17.48
2023-04-13T01:55:43.981Z,15.90
2023-04-13T01:58:13.218Z,14.77
2023-04-13T02:00:40.843Z,13.38
2023-04-13T02:03:09.725Z,15.68
2023-04-13T02:05:37.080Z,17.73
2023-04-13T02:08:07.466Z,14.68
2023-04-13T02:10:36.028Z,16.40
2023-04-13T02:13:04.161Z,15.00
2023-04-13T02:15:37.803Z,13.68
2023-04-13T02:18:05.459Z,17.33
2023-04-13T02:20:43.806Z,13.80
2023-04-13T02:23:17.947Z,15.68
2023-04-13T02:25:48.101Z,16.73
2023-04-13T02:28:18.002Z,14.55
2023-04-13T02:30:44.991Z,16.08
2023-04-13T02:33:11.681Z,17.17
2023-04-13T02:35:39.053Z,14.50
2023-04-13T02:38:06.895Z,17.27
2023-04-13T02:40:33.671Z,14.82
2023-04-13T02:43:00.308Z,15.52
2023-04-13T02:45:28.573Z,14.45
2023-04-13T02:47:55.358Z,16.20
2023-04-13T02:50:22.301Z,15.77
2023-04-13T02:52:49.090Z,16.52
2023-04-13T02:55:15.984Z,16.77
2023-04-13T02:57:43.453Z,17.42
2023-04-13T03:00:10.976Z,17.15
2023-04-13T03:02:38.496Z,18.05
2023-04-13T03:05:06.578Z,16.33
2023-04-13T03:07:34.065Z,15.73
2023-04-13T03:10:03.235Z,17.23
2023-04-13T03:12:30.338Z,17.23
2023-04-13T03:14:57.101Z,17.85
2023-04-13T03:17:23.956Z,16.85
2023-04-13T03:19:51.958Z,14.05
2023-04-13T03:22:18.647Z,15.35
2023-04-13T03:24:45.417Z,14.25
2023-04-13T03:27:12.201Z,14.80
2023-04-13T03:29:38.904Z,16.52
2023-04-13T03:32:05.690Z,14.32
2023-04-13T03:34:32.320Z,14.38
2023-04-13T03:36:59.036Z,17.40
2023-04-13T03:39:25.761Z,18.65
2023-04-13T03:41:52.460Z,18.13
2023-04-13T03:44:19.160Z,22.30
2023-04-13T03:46:46.039Z,21.20
2023-04-13T03:49:12.977Z,19.20
2023-04-13T03:51:39.642Z,24.15
2023-04-13T03:54:06.249Z,17.70
2023-04-13T03:56:33.030Z,17.65
2023-04-13T03:59:00.115Z,20.10
2023-04-13T04:01:27.421Z,14.43
2023-04-13T04:03:57.220Z,15.50
2023-04-13T04:06:24.554Z,22.25
2023-04-13T04:08:51.489Z,19.35
2023-04-13T04:11:18.213Z,13.52
2023-04-13T04:13:45.055Z,21.63
2023-04-13T04:16:11.971Z,16.40
2023-04-13T04:18:38.972Z,14.95
2023-04-13T04:21:06.975Z,15.07
2023-04-13T04:23:34.771Z,13.75
2023-04-13T04:26:03.143Z,15.48
2023-04-13T04:28:38.929Z,17.13
2023-04-13T04:31:12.020Z,17.13
2023-04-13T04:33:38.803Z,14.77
2023-04-13T04:36:10.474Z,19.42
2023-04-13T04:38:37.982Z,16.88
2023-04-13T04:41:04.881Z,18.92
2023-04-13T04:43:32.309Z,20.50
2023-04-13T04:45:59.065Z,23.17
2023-04-13T04:48:27.095Z,21.15
2023-04-13T04:50:56.215Z,19.27
2023-04-13T04:53:23.140Z,21.58
2023-04-13T04:55:50.321Z,26.52
2023-04-13T04:58:17.097Z,19.38
2023-04-13T05:00:43.831Z,20.17
2023-04-13T05:03:10.772Z,17.85
2023-04-13T05:05:37.652Z,17.33
2023-04-13T05:08:05.327Z,16.70
2023-04-13T05:10:32.004Z,22.85
2023-04-13T05:12:58.720Z,20.63
2023-04-13T05:15:26.770Z,14.15
2023-04-13T05:17:55.199Z,20.85
2023-04-13T05:20:21.958Z,15.43
2023-04-13T05:22:48.680Z,21.75
2023-04-13T05:25:15.343Z,13.15
2023-04-13T05:27:41.999Z,18.13
2023-04-13T05:30:09.798Z,14.45
2023-04-13T05:32:37.281Z,18.08
2023-04-13T05:35:04.727Z,20.80
2023-04-13T05:37:32.082Z,19.80
2023-04-13T05:39:58.910Z,11.23
2023-04-13T05:42:25.662Z,12.93
2023-04-13T05:44:52.781Z,27.33
2023-04-13T05:47:22.174Z,14.73
2023-04-13T05:49:48.879Z,15.85
2023-04-13T05:52:15.779Z,24.38
2023-04-13T05:54:42.448Z,21.38
2023-04-13T05:57:09.140Z,18.90
2023-04-13T05:59:35.772Z,15.57
2023-04-13T06:02:03.132Z,26.77
2023-04-13T06:04:31.327Z,21.23
2023-04-13T06:06:58.110Z,19.13
2023-04-13T06:09:24.830Z,19.95
2023-04-13T06:11:51.462Z,23.65
2023-04-13T06:14:18.366Z,20.65
2023-04-13T06:16:45.126Z,18.73
2023-04-13T06:19:12.833Z,29.50
2023-04-13T06:21:39.530Z,31.48
2023-04-13T06:24:06.500Z,32.85
2023-04-13T06:26:33.726Z,28.58
2023-04-13T06:29:00.664Z,26.73
2023-04-13T06:31:28.128Z,25.67
2023-04-13T06:33:55.555Z,25.77
2023-04-13T06:36:22.289Z,28.23
2023-04-13T06:38:48.940Z,25.98
2023-04-13T06:41:15.666Z,17.75
2023-04-13T06:43:42.365Z,20.10
2023-04-13T06:46:09.209Z,18.50
2023-04-13T06:48:36.088Z,19.00
2023-04-13T06:51:02.844Z,18.17
2023-04-13T06:53:29.563Z,13.48
2023-04-13T06:55:56.195Z,12.57
2023-04-13T06:58:23.473Z,15.73
2023-04-13T07:00:50.709Z,15.85
2023-04-13T07:03:17.623Z,14.13
2023-04-13T07:05:45.222Z,13.73
2023-04-13T07:08:13.124Z,13.25
2023-04-13T07:10:41.084Z,16.20
2023-04-13T07:13:07.904Z,13.77
2023-04-13T07:15:37.470Z,15.52
2023-04-13T07:18:04.931Z,14.70
2023-04-13T07:20:31.705Z,11.50
2023-04-13T07:22:58.492Z,19.35
2023-04-13T07:25:25.541Z,16.77
2023-04-13T07:27:52.242Z,15.57
2023-04-13T07:30:19.051Z,17.50
2023-04-13T07:32:45.950Z,14.38
2023-04-13T07:35:12.663Z,11.88
2023-04-13T07:37:39.350Z,25.63
2023-04-13T07:40:06.932Z,20.27
2023-04-13T07:42:33.653Z,16.60
2023-04-13T07:45:00.819Z,14.55
2023-04-13T07:47:27.552Z,13.30
2023-04-13T07:49:54.320Z,12.43
2023-04-13T07:52:21.362Z,13.85
2023-04-13T07:54:48.170Z,13.38
2023-04-13T07:57:15.061Z,22.30
2023-04-13T07:59:41.833Z,13.95
2023-04-13T08:02:08.599Z,16.50
2023-04-13T08:04:36.081Z,17.75
2023-04-13T08:07:06.094Z,24.95
2023-04-13T08:09:36.512Z,18.25
2023-04-13T08:12:03.951Z,12.35
2023-04-13T08:14:31.274Z,17.55
2023-04-13T08:16:57.984Z,13.25
2023-04-13T08:19:24.749Z,23.25
2023-04-13T08:21:52.521Z,12.85
2023-04-13T08:24:20.777Z,14.35
2023-04-13T08:26:47.470Z,10.65
2023-04-13T08:29:14.599Z,14.48
2023-04-13T08:31:41.318Z,13.55
2023-04-13T08:34:10.485Z,24.70
2023-04-13T08:36:38.558Z,12.60
2023-04-13T08:39:10.340Z,12.82
2023-04-13T08:41:41.967Z,32.67
2023-04-13T08:44:08.914Z,16.45
2023-04-13T08:46:35.749Z,12.40
2023-04-13T08:49:03.375Z,14.15
2023-04-13T08:51:32.135Z,11.35
2023-04-13T08:53:59.284Z,10.75
2023-04-13T08:56:38.401Z,11.48
2023-04-13T08:59:12.033Z,12.52
2023-04-13T09:01:39.404Z,10.90
2023-04-13T09:04:11.000Z,17.30
2023-04-13T09:06:39.967Z,26.10
2023-04-13T09:09:11.094Z,12.13
2023-04-13T09:11:38.108Z,13.25
2023-04-13T09:14:05.136Z,14.32
2023-04-13T09:16:39.209Z,12.75
2023-04-13T09:19:05.925Z,11.13
2023-04-13T09:21:43.606Z,16.65
2023-04-13T09:24:11.011Z,11.80
2023-04-13T09:26:47.935Z,12.35
2023-04-13T09:29:19.182Z,9.98
2023-04-13T09:31:47.676Z,19.23
2023-04-13T09:34:15.557Z,11.25
2023-04-13T09:36:53.374Z,12.68
2023-04-13T09:39:29.901Z,9.60
2023-04-13T09:41:58.235Z,11.05
2023-04-13T09:44:27.529Z,9.88
2023-04-13T09:47:02.134Z,8.27
2023-04-13T09:49:42.558Z,18.02
2023-04-13T09:52:25.837Z,7.20
2023-04-13T09:54:54.506Z,9.00
2023-04-13T09:57:31.812Z,8.77
2023-04-13T10:00:01.535Z,12.73
2023-04-13T10:02:29.059Z,8.10
2023-04-13T10:04:56.428Z,11.45
2023-04-13T10:07:26.850Z,8.45
2023-04-13T10:09:54.270Z,7.45
2023-04-13T10:12:21.044Z,5.95
2023-04-13T10:14:48.970Z,7.45
2023-04-13T10:17:37.613Z,9.75
2023-04-13T10:20:10.253Z,8.13
2023-04-13T10:22:37.925Z,9.32
2023-04-13T10:25:07.085Z,7.40
2023-04-13T10:27:36.538Z,7.00
2023-04-13T10:30:16.531Z,6.50
2023-04-13T10:32:43.298Z,8.13
2023-04-13T10:35:11.880Z,5.93
2023-04-13T10:37:40.564Z,8.68
2023-04-13T10:40:13.955Z,8.82
2023-04-13T10:42:51.821Z,8.52
2023-04-13T10:45:26.125Z,9.18
2023-04-13T10:47:53.973Z,7.80
2023-04-13T10:50:22.811Z,6.38
2023-04-13T10:53:01.942Z,9.02
2023-04-13T10:55:29.679Z,10.52
2023-04-13T10:57:59.433Z,9.02
2023-04-13T11:00:42.276Z,8.30
2023-04-13T11:03:15.565Z,12.80
2023-04-13T11:05:42.667Z,7.60
2023-04-13T11:08:09.706Z,6.50
2023-04-13T11:10:36.343Z,7.60
2023-04-13T11:13:03.348Z,8.07
2023-04-13T11:15:32.361Z,7.70
2023-04-13T11:18:00.914Z,9.05
2023-04-13T11:20:37.452Z,8.05
2023-04-13T11:23:06.419Z,8.93
2023-04-13T11:25:36.570Z,7.43
2023-04-13T11:28:04.037Z,8.20
2023-04-13T11:30:32.529Z,7.47
2023-04-13T11:33:01.065Z,7.78
2023-04-13T11:35:28.011Z,13.10
2023-04-13T11:37:56.099Z,9.52
2023-04-13T11:40:27.821Z,8.27
2023-04-13T11:42:56.386Z,8.68
2023-04-13T11:45:28.758Z,9.75
2023-04-13T11:47:56.592Z,7.43
2023-04-13T11:50:23.860Z,11.70
2023-04-13T11:52:56.763Z,11.50
2023-04-13T11:55:24.481Z,8.60
2023-04-13T11:57:52.988Z,9.80
2023-04-13T12:00:27.250Z,10.02
2023-04-13T12:05:30.129Z,11.88
2023-04-13T12:07:58.458Z,8.93
2023-04-13T12:10:38.376Z,7.75
2023-04-13T12:13:20.304Z,8.23
2023-04-13T12:16:05.333Z,7.63
2023-04-13T12:18:49.500Z,7.65
2023-04-13T12:21:17.835Z,12.20
2023-04-13T12:23:54.499Z,8.43
2023-04-13T12:28:57.536Z,7.78
2023-04-13T12:31:24.796Z,9.55
2023-04-13T12:33:51.727Z,8.68
2023-04-13T12:36:18.428Z,10.00
2023-04-13T12:38:45.142Z,10.15
2023-04-13T12:41:12.126Z,10.13
2023-04-13T12:43:38.766Z,15.90
2023-04-13T12:46:05.510Z,10.73
2023-04-13T12:48:32.301Z,12.45
2023-04-13T12:50:59.015Z,9.45
2023-04-13T12:53:25.752Z,8.30
2023-04-13T12:55:52.423Z,7.57
2023-04-13T12:58:19.134Z,7.95
2023-04-13T13:00:45.906Z,8.10
2023-04-13T13:03:15.094Z,8.65
2023-04-13T13:05:42.426Z,7.55
2023-04-13T13:08:09.411Z,11.85
2023-04-13T13:10:40.193Z,9.32
2023-04-13T13:13:06.988Z,7.78
2023-04-13T13:15:33.900Z,8.68
2023-04-13T13:18:04.560Z,9.40
2023-04-13T13:20:31.353Z,13.63
2023-04-13T13:22:58.299Z,7.72
2023-04-13T13:25:25.098Z,8.50
2023-04-13T13:30:21.385Z,8.15
2023-04-13T13:32:48.093Z,9.90
2023-04-13T13:35:14.878Z,13.23
2023-04-13T13:37:41.584Z,7.78
2023-04-13T13:40:13.384Z,15.98
2023-04-13T13:42:51.252Z,9.55
2023-04-13T13:45:19.979Z,8.20
2023-04-13T13:47:54.215Z,9.52
2023-04-13T13:50:21.881Z,8.45
2023-04-13T13:53:02.453Z,8.10
2023-04-13T13:55:31.036Z,8.32
2023-04-13T13:57:57.949Z,8.05
2023-04-13T14:00:27.179Z,15.75
2023-04-13T14:02:54.091Z,14.82
2023-04-13T14:05:22.237Z,11.57
2023-04-13T14:07:49.211Z,9.05
2023-04-13T14:10:16.190Z,9.68
2023-04-13T14:12:47.462Z,10.20
2023-04-13T14:15:15.794Z,10.57
2023-04-13T14:17:42.568Z,10.80
2023-04-13T14:20:10.564Z,10.23
2023-04-13T14:22:40.675Z,9.85
2023-04-13T14:25:09.472Z,9.45
2023-04-13T14:27:36.877Z,8.68
2023-04-13T14:30:04.450Z,7.57
2023-04-13T14:32:31.943Z,11.48
2023-04-13T14:35:00.122Z,8.52
2023-04-13T14:37:28.144Z,8.88
2023-04-13T14:39:55.094Z,7.13
2023-04-13T14:42:22.475Z,7.30
2023-04-13T14:44:49.107Z,9.45
2023-04-13T14:47:16.124Z,9.25
2023-04-13T14:49:43.364Z,11.70
2023-04-13T14:52:10.004Z,9.63
2023-04-13T14:54:36.803Z,8.23
2023-04-13T14:57:04.791Z,9.10
2023-04-13T14:59:31.663Z,12.88
2023-04-13T15:01:58.453Z,12.30
2023-04-13T15:04:25.340Z,8.70
2023-04-13T15:06:54.347Z,20.13
2023-04-13T15:11:49.385Z,15.00
2023-04-13T15:14:16.409Z,11.68
2023-04-13T15:16:43.258Z,10.38
2023-04-13T15:19:10.023Z,9.00
2023-04-13T15:21:36.740Z,14.35
2023-04-13T15:24:03.589Z,10.35
2023-04-13T15:26:30.478Z,8.88
2023-04-13T15:28:57.146Z,6.65
2023-04-13T15:31:23.861Z,7.55
2023-04-13T15:33:50.734Z,8.18
2023-04-13T15:36:19.071Z,10.13
2023-04-13T15:38:45.813Z,8.85
2023-04-13T15:41:12.493Z,10.63
2023-04-13T15:43:41.221Z,7.65
2023-04-13T15:46:08.991Z,8.95
2023-04-13T15:48:35.865Z,11.35
2023-04-13T15:51:02.560Z,7.78
2023-04-13T15:53:29.330Z,13.85
2023-04-13T15:55:56.025Z,14.43
2023-04-13T15:58:22.717Z,15.93
2023-04-13T16:01:07.352Z,16.15
2023-04-13T16:03:35.060Z,12.50
2023-04-13T16:06:02.630Z,14.18
2023-04-13T16:08:29.253Z,8.15
2023-04-13T16:10:55.936Z,13.10
2023-04-13T16:13:22.690Z,9.13
2023-04-13T16:15:53.696Z,10.93
2023-04-13T16:18:21.816Z,8.65
2023-04-13T16:20:58.872Z,10.23
2023-04-13T16:23:26.023Z,10.38
2023-04-13T16:25:52.765Z,11.20
2023-04-13T16:28:20.348Z,9.05
2023-04-13T16:30:47.807Z,7.35
2023-04-13T16:33:14.586Z,8.15
2023-04-13T16:35:41.393Z,9.90
2023-04-13T16:38:08.007Z,8.73
2023-04-13T16:40:34.696Z,14.43
2023-04-13T16:43:03.293Z,13.40
2023-04-13T16:45:30.035Z,13.35
2023-04-13T16:47:56.747Z,11.02
2023-04-13T16:50:28.528Z,12.40
2023-04-13T16:52:56.671Z,13.38
2023-04-13T16:55:23.499Z,12.05
2023-04-13T16:57:50.998Z,14.43
2023-04-13T17:00:18.292Z,8.52
2023-04-13T17:02:45.194Z,19.90
2023-04-13T17:05:12.782Z,14.43
2023-04-13T17:07:41.614Z,14.68
2023-04-13T17:10:09.162Z,12.18
2023-04-13T17:12:36.197Z,13.95
2023-04-13T17:15:03.059Z,10.50
2023-04-13T17:17:29.740Z,15.07
2023-04-13T17:19:56.490Z,10.23
2023-04-13T17:22:23.521Z,15.98
2023-04-13T17:24:50.275Z,17.33
2023-04-13T17:27:17.527Z,15.32
2023-04-13T17:29:44.263Z,14.75
2023-04-13T17:32:11.043Z,11.68
2023-04-13T17:34:37.970Z,16.60
2023-04-13T17:37:04.983Z,33.10
2023-04-13T17:39:32.107Z,19.60
2023-04-13T17:41:58.769Z,13.93
2023-04-13T17:44:25.457Z,21.42
2023-04-13T17:46:54.436Z,21.85
2023-04-13T17:49:22.209Z,17.95
2023-04-13T17:51:49.172Z,21.30
2023-04-13T17:54:15.958Z,10.57
2023-04-13T17:56:42.659Z,10.40
2023-04-13T17:59:13.296Z,10.68
2023-04-13T18:01:42.467Z,14.73
2023-04-13T18:06:40.474Z,16.98
2023-04-13T18:09:08.990Z,18.50
2023-04-13T18:11:35.836Z,16.23
2023-04-13T18:14:03.049Z,13.35
2023-04-13T18:16:31.834Z,11.65
2023-04-13T18:19:01.904Z,12.55
2023-04-13T18:21:28.749Z,15.45
2023-04-13T18:23:55.584Z,14.82
2023-04-13T18:26:22.829Z,30.52
2023-04-13T18:28:49.553Z,16.63
2023-04-13T18:31:16.597Z,12.95
2023-04-13T18:33:44.181Z,21.02
2023-04-13T18:36:15.630Z,15.35
2023-04-13T18:38:42.405Z,16.80
2023-04-13T18:41:09.766Z,16.90
2023-04-13T18:43:36.625Z,16.15
2023-04-13T18:46:03.368Z,13.95
2023-04-13T18:48:30.852Z,19.65
2023-04-13T18:50:57.548Z,22.63
2023-04-13T18:53:24.814Z,16.98
2023-04-13T18:55:52.455Z,14.68
2023-04-13T18:58:19.876Z,20.08
2023-04-13T19:00:47.500Z,19.65
2023-04-13T19:03:14.794Z,14.75
2023-04-13T19:05:41.658Z,23.05
2023-04-13T19:08:10.059Z,20.00
2023-04-13T19:13:03.534Z,15.75
2023-04-13T19:15:31.158Z,22.38
2023-04-13T19:17:58.683Z,25.48
2023-04-13T19:20:25.613Z,22.75
2023-04-13T19:22:52.265Z,33.28
2023-04-13T19:25:19.125Z,23.63
2023-04-13T19:27:46.559Z,27.20
2023-04-13T19:30:14.525Z,31.33
2023-04-13T19:32:43.615Z,31.95
2023-04-13T19:35:10.693Z,24.40
2023-04-13T19:37:38.382Z,22.50
2023-04-13T19:40:13.825Z,22.05
2023-04-13T19:42:44.503Z,20.52
2023-04-13T19:45:12.069Z,25.27
2023-04-13T19:47:39.865Z,20.52
2023-04-13T19:50:09.051Z,20.85
2023-04-13T19:52:35.938Z,19.35
2023-04-13T19:55:02.822Z,30.67
2023-04-13T19:57:29.638Z,26.08
2023-04-13T19:59:57.071Z,27.55
2023-04-13T20:02:24.073Z,20.88
2023-04-13T20:04:51.051Z,25.98
2023-04-13T20:07:18.061Z,25.15
2023-04-13T20:09:45.391Z,23.00
2023-04-13T20:12:12.448Z,27.95
2023-04-13T20:14:42.082Z,30.88
2023-04-13T20:17:09.493Z,25.73
2023-04-13T20:19:36.691Z,33.60
2023-04-13T20:22:04.838Z,30.30
2023-04-13T20:24:31.922Z,30.90
2023-04-13T20:26:59.090Z,37.75
2023-04-13T20:29:27.368Z,43.72
2023-04-13T20:31:54.811Z,35.33
2023-04-13T20:34:22.180Z,26.98
2023-04-13T20:36:49.069Z,19.38
2023-04-13T20:39:18.654Z,23.77
2023-04-13T20:41:55.166Z,34.67
2023-04-13T20:44:24.634Z,30.88
2023-04-13T20:49:23.120Z,34.10
2023-04-13T20:51:50.942Z,29.40
2023-04-13T20:54:17.657Z,35.45
2023-04-13T20:56:44.333Z,28.63
2023-04-13T20:59:11.243Z,28.58
2023-04-13T21:01:38.771Z,23.70
2023-04-13T21:04:05.689Z,29.52
2023-04-13T21:06:33.825Z,25.52
2023-04-13T21:09:01.102Z,28.30
2023-04-13T21:11:28.261Z,33.05
2023-04-13T21:13:54.950Z,28.10
2023-04-13T21:16:21.700Z,20.65
2023-04-13T21:18:48.458Z,28.83
2023-04-13T21:21:15.131Z,32.97
2023-04-13T21:23:41.780Z,25.75
2023-04-13T21:26:08.548Z,27.08
2023-04-13T21:28:35.216Z,32.03
2023-04-13T21:31:01.855Z,24.00
2023-04-13T21:33:28.618Z,37.63
2023-04-13T21:35:55.276Z,27.00
2023-04-13T21:38:21.918Z,32.28
2023-04-13T21:40:48.667Z,38.50
2023-04-13T21:43:15.624Z,32.88
2023-04-13T21:45:42.368Z,36.88
2023-04-13T21:48:09.038Z,30.50
2023-04-13T21:50:35.750Z,28.20
2023-04-13T21:53:02.389Z,36.85
2023-04-13T21:55:29.064Z,31.17
2023-04-13T21:57:55.680Z,26.55
2023-04-13T22:00:22.533Z,23.67
2023-04-13T22:02:51.531Z,32.58
2023-04-13T22:05:18.423Z,32.05
2023-04-13T22:07:45.181Z,24.75
2023-04-13T22:10:11.903Z,30.45
2023-04-13T22:12:38.757Z,27.65
2023-04-13T22:15:06.324Z,29.55
2023-04-13T22:17:33.119Z,27.15
2023-04-13T22:19:59.757Z,30.38
2023-04-13T22:22:27.131Z,25.80
2023-04-13T22:24:53.888Z,37.25
2023-04-13T22:27:20.685Z,34.30
2023-04-13T22:29:47.915Z,30.05
2023-04-13T22:32:15.111Z,35.22
2023-04-13T22:34:42.011Z,34.97
2023-04-13T22:37:10.470Z,41.75
2023-04-13T22:39:37.470Z,42.15
2023-04-13T22:42:04.419Z,32.45
2023-04-13T22:44:37.276Z,40.88
2023-04-13T22:47:04.647Z,44.85
2023-04-13T22:49:31.636Z,40.13
2023-04-13T22:52:00.278Z,47.03
2023-04-13T22:54:26.931Z,32.33
2023-04-13T22:56:53.838Z,35.17
2023-04-13T22:59:20.582Z,40.80
2023-04-13T23:01:47.346Z,40.35
2023-04-13T23:04:16.093Z,31.63
2023-04-13T23:06:43.194Z,37.72
2023-04-13T23:09:09.862Z,31.30
2023-04-13T23:11:36.656Z,39.08
2023-04-13T23:14:03.389Z,30.80
2023-04-13T23:16:30.157Z,25.02
2023-04-13T23:18:56.992Z,29.92
2023-04-13T23:21:23.679Z,33.80
2023-04-13T23:23:50.556Z,25.30
2023-04-13T23:26:17.296Z,21.58
2023-04-13T23:28:44.179Z,17.63
2023-04-13T23:31:11.008Z,23.38
2023-04-13T23:33:37.967Z,19.13
2023-04-13T23:36:05.119Z,19.30
2023-04-13T23:38:32.289Z,20.50
2023-04-13T23:40:59.271Z,22.40
2023-04-13T23:43:26.161Z,21.00
2023-04-13T23:45:53.379Z,17.48
2023-04-13T23:48:21.467Z,21.95
2023-04-13T23:50:48.969Z,19.38
2023-04-13T23:53:16.513Z,20.60
2023-04-13T23:55:43.254Z,25.95
2023-04-13T23:58:09.946Z,19.58
